Time;durP1;ratioP1;P1;durP2;ratioP2;P2;SDS_P1;SDS_P2;PMS_P1;PMS_P2;Temp;Humidity;BMP_temperature;BMP_pressure;BME280_temperature;BME280_humidity;BME280_pressure;Samples;Min_cycle;Max_cycle;Signal;HPM_P1;HPM_P2
2021/05/26 00:00:36;;;;;;;;;;;;;;;23.40;62.32;100650.54;1771311;79;20208;-56
2021/05/26 00:03:04;;;;;;;;;;;;;;;23.38;62.37;100651.47;1770091;79;20409;-56
2021/05/26 00:05:31;;;;;;;;;;;;;;;23.35;62.37;100657.11;1772910;79;20240;-56
2021/05/26 00:07:57;;;;;;;;;;;;;;;23.33;62.41;100654.45;1768087;79;20209;-56
2021/05/26 00:10:24;;;;;;;;;;;;;;;23.30;62.45;100653.14;1768007;79;21148;-56
2021/05/26 00:12:50;;;;;;;;;;;;;;;23.28;62.48;100654.65;1744513;80;20209;-56
2021/05/26 00:15:16;;;;;;;;;;;;;;;23.27;62.50;100654.41;1707425;82;20190;-56
2021/05/26 00:17:42;;;;;;;;;;;;;;;23.24;62.55;100647.58;1746502;80;20340;-56
2021/05/26 00:20:09;;;;;;;;;;;;;;;23.21;62.58;100643.50;1744842;81;20753;-56
2021/05/26 00:22:35;;;;;;;;;;;;;;;23.21;62.60;100646.87;1745326;80;21248;-57
2021/05/26 00:25:02;;;;;;;;;;;;;;;23.19;62.62;100645.00;1745739;81;20253;-57
2021/05/26 00:27:29;;;;;;;;;;;;;;;23.18;62.64;100646.97;1716835;82;20289;-57
2021/05/26 00:29:55;;;;;;;;;;;;;;;23.20;62.66;100650.23;1710545;82;20282;-57
2021/05/26 00:32:21;;;;;;;;;;;;;;;23.21;62.71;100646.87;1713296;82;20280;-57
2021/05/26 00:34:47;;;;;;;;;;;;;;;23.23;62.73;100641.79;1713802;82;21113;-56
2021/05/26 00:37:13;;;;;;;;;;;;;;;23.26;62.79;100642.48;1715094;82;20203;-56
2021/05/26 00:39:39;;;;;;;;;;;;;;;23.30;62.83;100647.59;1714091;82;20270;-56
2021/05/26 00:42:06;;;;;;;;;;;;;;;23.34;62.87;100640.81;1711803;82;20535;-57
2021/05/26 00:44:31;;;;;;;;;;;;;;;23.37;62.88;100645.67;1713929;82;20585;-57
2021/05/26 00:46:57;;;;;;;;;;;;;;;23.39;62.91;100633.06;1715254;82;21131;-56
2021/05/26 00:49:23;;;;;;;;;;;;;;;23.44;62.92;100639.02;1713860;82;21718;-57
2021/05/26 00:51:49;;;;;;;;;;;;;;;23.46;62.87;100631.99;1713757;82;20220;-57
2021/05/26 00:54:15;;;;;;;;;;;;;;;23.49;62.90;100627.70;1710457;82;20224;-57
2021/05/26 00:56:41;;;;;;;;;;;;;;;23.51;62.86;100624.81;1710847;82;20223;-57
2021/05/26 00:59:07;;;;;;;;;;;;;;;23.51;62.83;100628.16;1714081;82;21092;-56
2021/05/26 01:01:33;;;;;;;;;;;;;;;23.51;62.79;100634.53;1720170;82;20296;-57
2021/05/26 01:03:59;;;;;;;;;;;;;;;23.51;62.81;100634.53;1712572;82;20207;-57
2021/05/26 01:06:25;;;;;;;;;;;;;;;23.49;62.72;100635.47;1715334;82;20792;-57
2021/05/26 01:08:51;;;;;;;;;;;;;;;23.47;62.71;100632.20;1714350;82;20830;-57
2021/05/26 01:11:17;;;;;;;;;;;;;;;23.46;62.68;100629.22;1713175;82;21778;-56
2021/05/26 01:13:43;;;;;;;;;;;;;;;23.44;62.67;100627.91;1706250;83;20592;-56
2021/05/26 01:16:09;;;;;;;;;;;;;;;23.40;62.64;100626.37;1705102;83;20240;-57
2021/05/26 01:18:35;;;;;;;;;;;;;;;23.38;62.61;100631.44;1730662;81;20501;-56
2021/05/26 01:21:05;;;;;;;;;;;;;;;23.35;62.62;100620.20;1729457;81;20304;-56
2021/05/26 01:23:31;;;;;;;;;;;;;;;23.31;62.66;100622.86;1731628;81;21537;-57
2021/05/26 01:25:59;;;;;;;;;;;;;;;23.28;62.66;100624.94;1712317;83;20491;-56
2021/05/26 01:28:26;;;;;;;;;;;;;;;23.25;62.66;100627.58;1712818;82;20600;-57
2021/05/26 01:30:52;;;;;;;;;;;;;;;23.21;62.69;100633.00;1738211;81;20161;-57
2021/05/26 01:33:18;;;;;;;;;;;;;;;23.18;62.74;100631.70;1729959;81;20222;-56
2021/05/26 01:35:45;;;;;;;;;;;;;;;23.16;62.75;100638.18;1721940;81;21064;-57
2021/05/26 01:38:12;;;;;;;;;;;;;;;23.13;62.76;100643.57;1727457;81;20492;-56
2021/05/26 01:40:38;;;;;;;;;;;;;;;23.11;62.80;100641.73;1703063;83;20204;-57
2021/05/26 01:43:04;;;;;;;;;;;;;;;23.08;62.83;100643.23;1710435;83;20346;-56
2021/05/26 01:45:30;;;;;;;;;;;;;;;23.05;62.86;100638.33;1726402;81;20309;-56
2021/05/26 01:47:56;;;;;;;;;;;;;;;23.03;62.87;100639.83;1736756;81;21204;-56
2021/05/26 01:50:22;;;;;;;;;;;;;;;23.01;62.91;100645.70;1735038;81;20210;-56
2021/05/26 01:52:50;;;;;;;;;;;;;;;22.99;62.94;100652.19;1691274;83;20225;-56
2021/05/26 01:55:16;;;;;;;;;;;;;;;22.97;62.99;100650.31;1693764;82;20739;-56
2021/05/26 01:57:44;;;;;;;;;;;;;;;22.96;63.00;100656.19;1693039;82;20461;-56
2021/05/26 02:00:12;;;;;;;;;;;;;;;22.94;63.02;100650.99;1731480;81;21202;-57
2021/05/26 02:02:38;;;;;;;;;;;;;;;22.92;63.06;100653.28;1728449;81;20209;-57
2021/05/26 02:05:06;;;;;;;;;;;;;;;22.91;63.08;100650.28;1732031;81;20886;-57
2021/05/26 02:07:32;;;;;;;;;;;;;;;22.94;63.05;100646.83;1709278;82;20248;-57
2021/05/26 02:09:58;;;;;;;;;;;;;;;22.96;63.09;100657.57;1707270;82;20292;-57
2021/05/26 02:12:24;;;;;;;;;;;;;;;22.97;63.13;100666.95;1690871;83;21083;-57
2021/05/26 02:14:52;;;;;;;;;;;;;;;22.99;63.19;100670.22;1706105;82;20161;-57
2021/05/26 02:17:19;;;;;;;;;;;;;;;23.03;63.25;100677.29;1712448;82;20232;-59
2021/05/26 02:19:45;;;;;;;;;;;;;;;23.08;63.26;100684.03;1704058;82;20417;-57
2021/05/26 02:22:11;;;;;;;;;;;;;;;23.13;63.27;100691.56;1713889;82;20533;-55
2021/05/26 02:24:37;;;;;;;;;;;;;;;23.15;63.28;100692.06;1714994;82;21107;-56
2021/05/26 02:27:03;;;;;;;;;;;;;;;23.20;63.26;100693.25;1718609;82;20482;-56
2021/05/26 02:29:29;;;;;;;;;;;;;;;23.25;63.24;100701.14;1738709;81;20690;-56
2021/05/26 02:31:55;;;;;;;;;;;;;;;23.27;63.21;100691.31;1737855;81;20617;-56
2021/05/26 02:34:21;;;;;;;;;;;;;;;23.27;63.19;100691.31;1738913;81;20316;-56
2021/05/26 02:36:47;;;;;;;;;;;;;;;23.31;63.14;100696.98;1740539;81;21110;-56
2021/05/26 02:39:13;;;;;;;;;;;;;;;23.30;63.10;100687.84;1743199;81;20197;-56
2021/05/26 02:41:39;;;;;;;;;;;;;;;23.30;63.07;100687.84;1736944;81;20188;-56
2021/05/26 02:44:05;;;;;;;;;;;;;;;23.29;62.98;100686.81;1735055;81;20259;-57
2021/05/26 02:46:31;;;;;;;;;;;;;;;23.27;62.96;100686.33;1736164;81;20558;-56
2021/05/26 02:48:57;;;;;;;;;;;;;;;23.24;62.92;100689.22;1739945;81;22693;-56
2021/05/26 02:51:23;;;;;;;;;;;;;;;23.20;62.86;100686.31;1738832;81;20211;-57
2021/05/26 02:53:49;;;;;;;;;;;;;;;23.17;62.85;100696.68;1738711;81;20272;-56
2021/05/26 02:56:15;;;;;;;;;;;;;;;23.14;62.87;100707.08;1738518;81;20525;-56
2021/05/26 02:58:41;;;;;;;;;;;;;;;23.12;62.85;100709.96;1740631;81;20815;-56
2021/05/26 03:01:07;;;;;;;;;;;;;;;23.09;62.85;100705.88;1736676;81;21699;-56
2021/05/26 03:03:34;;;;;;;;;;;;;;;23.06;62.88;100712.11;1737840;81;20522;-57
2021/05/26 03:06:00;;;;;;;;;;;;;;;23.04;62.90;100707.45;1739420;81;20255;-57
2021/05/26 03:08:26;;;;;;;;;;;;;;;23.02;62.92;100709.77;1742278;81;20228;-57
2021/05/26 03:10:55;;;;;;;;;;;;;;;22.99;62.93;100711.84;1736353;81;21022;-57
2021/05/26 03:13:19;;;;;;;;;;;;;;;22.96;62.93;100715.84;1756145;80;21140;-57
2021/05/26 03:15:45;;;;;;;;;;;;;;;22.92;62.96;100715.70;1754115;80;20182;-56
2021/05/26 03:18:11;;;;;;;;;;;;;;;22.89;62.99;100710.83;1747186;80;20253;-57
2021/05/26 03:20:37;;;;;;;;;;;;;;;22.89;63.01;100714.17;1763167;81;20231;-56
2021/05/26 03:23:03;;;;;;;;;;;;;;;22.86;63.04;100711.51;1753943;81;20610;-57
2021/05/26 03:25:29;;;;;;;;;;;;;;;22.85;63.05;100713.22;1723778;82;21776;-57
2021/05/26 03:27:55;;;;;;;;;;;;;;;22.83;63.07;100716.31;1752594;81;20249;-56
2021/05/26 03:30:22;;;;;;;;;;;;;;;22.80;63.10;100715.61;1771536;79;20327;-56
2021/05/26 03:32:48;;;;;;;;;;;;;;;22.80;63.13;100716.18;1769171;79;20266;-57
2021/05/26 03:35:14;;;;;;;;;;;;;;;22.78;63.12;100717.10;1771406;79;20270;-56
2021/05/26 03:37:40;;;;;;;;;;;;;;;22.75;63.17;100713.84;1769457;79;21067;-57
2021/05/26 03:40:08;;;;;;;;;;;;;;;22.74;63.19;100714.98;1767642;80;20629;-56
2021/05/26 03:42:34;;;;;;;;;;;;;;;22.74;63.22;100716.97;1770873;79;20462;-56
2021/05/26 03:45:00;;;;;;;;;;;;;;;22.73;63.27;100725.03;1771189;79;20952;-56
2021/05/26 03:47:26;;;;;;;;;;;;;;;22.77;63.23;100723.22;1770138;79;20259;-57
2021/05/26 03:49:52;;;;;;;;;;;;;;;22.78;63.25;100717.92;1768835;79;21104;-57
2021/05/26 03:52:18;;;;;;;;;;;;;;;22.81;63.29;100712.27;1769389;79;20759;-57
2021/05/26 03:54:44;;;;;;;;;;;;;;;22.84;63.33;100709.62;1769818;79;20720;-56
2021/05/26 03:57:10;;;;;;;;;;;;;;;22.87;63.37;100706.78;1773269;79;20677;-56
2021/05/26 03:59:36;;;;;;;;;;;;;;;22.92;63.40;100710.72;1769807;79;20305;-57
2021/05/26 04:02:02;;;;;;;;;;;;;;;22.97;63.41;100710.53;1764313;79;21105;-56
2021/05/26 04:04:27;;;;;;;;;;;;;;;23.01;63.42;100703.16;1770421;79;20790;-57
2021/05/26 04:06:53;;;;;;;;;;;;;;;23.06;63.41;100701.59;1767228;80;20298;-56
2021/05/26 04:09:20;;;;;;;;;;;;;;;23.10;63.39;100696.41;1767334;79;20192;-56
2021/05/26 04:11:46;;;;;;;;;;;;;;;23.14;63.35;100699.32;1771951;79;20553;-57
2021/05/26 04:14:13;;;;;;;;;;;;;;;23.16;63.34;100695.65;1738229;81;21087;-56
2021/05/26 04:16:39;;;;;;;;;;;;;;;23.18;63.31;100693.33;1734631;81;20276;-56
2021/05/26 04:19:05;;;;;;;;;;;;;;;23.19;63.24;100692.19;1734029;81;20353;-57
2021/05/26 04:21:32;;;;;;;;;;;;;;;23.20;63.19;100699.38;1740325;81;20301;-56
2021/05/26 04:23:58;;;;;;;;;;;;;;;23.20;63.12;100702.15;1734411;81;20750;-56
2021/05/26 04:26:23;;;;;;;;;;;;;;;23.17;63.08;100702.80;1735447;81;23251;-57
2021/05/26 04:28:49;;;;;;;;;;;;;;;23.17;63.08;100706.96;1739802;81;20154;-56
2021/05/26 04:31:21;;;;;;;;;;;;;;;23.16;63.02;100712.30;1741554;81;20281;-56
2021/05/26 04:33:47;;;;;;;;;;;;;;;23.13;62.99;100712.95;1743897;81;20208;-57
2021/05/26 04:36:13;;;;;;;;;;;;;;;23.08;62.99;100715.37;1737090;81;21678;-57
2021/05/26 04:38:39;;;;;;;;;;;;;;;23.09;63.05;100720.33;1734355;81;20973;-57
2021/05/26 04:41:09;;;;;;;;;;;;;;;23.08;63.07;100726.48;1739620;81;20189;-57
2021/05/26 04:43:32;;;;;;;;;;;;;;;23.10;63.14;100730.28;1734437;81;20237;-57
2021/05/26 04:46:00;;;;;;;;;;;;;;;23.08;63.20;100740.35;1738259;81;20382;-57
2021/05/26 04:48:28;;;;;;;;;;;;;;;23.05;63.27;100736.02;1739199;81;20822;-57
2021/05/26 04:50:54;;;;;;;;;;;;;;;23.02;63.31;100736.13;1723856;81;21053;-56
2021/05/26 04:53:20;;;;;;;;;;;;;;;23.02;63.38;100743.64;1730520;81;20319;-57
2021/05/26 04:55:46;;;;;;;;;;;;;;;22.99;63.40;100742.36;1742482;81;20283;-56
2021/05/26 04:58:12;;;;;;;;;;;;;;;22.98;63.43;100752.40;1733866;81;20275;-57
2021/05/26 05:00:38;;;;;;;;;;;;;;;22.95;63.44;100751.12;1738463;81;20719;-56
2021/05/26 05:03:04;;;;;;;;;;;;;;;22.94;63.47;100763.36;1744262;81;20881;-56
2021/05/26 05:05:33;;;;;;;;;;;;;;;22.92;63.49;100752.33;1737870;81;20177;-56
2021/05/26 05:08:00;;;;;;;;;;;;;;;22.92;63.53;100758.70;1736805;81;20995;-57
2021/05/26 05:10:26;;;;;;;;;;;;;;;22.92;63.59;100763.44;1743049;81;21875;-56
2021/05/26 05:12:52;;;;;;;;;;;;;;;22.92;63.62;100769.80;1749864;80;20325;-56
2021/05/26 05:15:18;;;;;;;;;;;;;;;22.94;63.63;100782.78;1764839;79;21148;-57
2021/05/26 05:17:48;;;;;;;;;;;;;;;22.97;63.65;100787.65;1767211;80;20256;-56
2021/05/26 05:20:15;;;;;;;;;;;;;;;23.00;63.68;100796.69;1763749;79;20263;-55
2021/05/26 05:22:41;;;;;;;;;;;;;;;23.02;63.73;100791.62;1767790;79;20477;-56
2021/05/26 05:25:08;;;;;;;;;;;;;;;23.05;63.78;100802.63;1771751;80;20779;-54
2021/05/26 05:27:34;;;;;;;;;;;;;;;23.07;63.82;100808.66;1768060;80;21185;-55
2021/05/26 05:30:00;;;;;;;;;;;;;;;23.09;63.86;100816.06;1774108;79;20729;-58
2021/05/26 05:32:26;;;;;;;;;;;;;;;23.12;63.91;100808.48;1764972;80;20266;-56
2021/05/26 05:34:52;;;;;;;;;;;;;;;23.15;63.95;100811.39;1773096;79;22000;-56
2021/05/26 05:37:18;;;;;;;;;;;;;;;23.20;63.94;100813.98;1774953;79;20187;-55
2021/05/26 05:39:44;;;;;;;;;;;;;;;23.24;63.97;100809.97;1777797;79;21144;-56
2021/05/26 05:42:10;;;;;;;;;;;;;;;23.29;63.93;100808.95;1764605;80;20809;-56
2021/05/26 05:44:36;;;;;;;;;;;;;;;23.30;63.91;100820.31;1744730;80;20268;-55
2021/05/26 05:47:02;;;;;;;;;;;;;;;23.31;63.90;100821.91;1741266;80;20253;-56
2021/05/26 05:49:27;;;;;;;;;;;;;;;23.31;63.89;100818.56;1751972;80;20219;-56
2021/05/26 05:51:53;;;;;;;;;;;;;;;23.31;63.83;100824.69;1739813;80;21122;-56
2021/05/26 05:54:19;;;;;;;;;;;;;;;23.30;63.78;100830.81;1742857;80;20652;-56
2021/05/26 05:56:45;;;;;;;;;;;;;;;23.29;63.77;100830.59;1746973;80;20230;-56
2021/05/26 05:59:11;;;;;;;;;;;;;;;23.29;63.74;100836.72;1746298;80;20247;-55
2021/05/26 06:01:37;;;;;;;;;;;;;;;23.26;63.68;100825.69;1745600;80;20227;-56
2021/05/26 06:04:04;;;;;;;;;;;;;;;23.23;63.68;100831.35;1741534;80;21137;-56
2021/05/26 06:06:30;;;;;;;;;;;;;;;23.21;63.65;100831.46;1742196;80;20488;-56
2021/05/26 06:08:56;;;;;;;;;;;;;;;23.18;63.66;100830.72;1740223;80;20709;-56
2021/05/26 06:11:22;;;;;;;;;;;;;;;23.15;63.69;100838.33;1746396;80;20279;-55
2021/05/26 06:13:49;;;;;;;;;;;;;;;23.13;63.69;100846.16;1747998;80;20219;-56
2021/05/26 06:16:16;;;;;;;;;;;;;;;23.09;63.71;100846.02;1770442;79;21134;-56
2021/05/26 06:18:42;;;;;;;;;;;;;;;23.06;63.75;100848.09;1773907;79;20557;-55
2021/05/26 06:21:08;;;;;;;;;;;;;;;23.03;63.75;100845.98;1770039;79;20301;-56
2021/05/26 06:23:35;;;;;;;;;;;;;;;23.00;63.81;100855.55;1772783;79;20301;-56
2021/05/26 06:26:01;;;;;;;;;;;;;;;22.98;63.83;100855.06;1769899;79;20245;-56
2021/05/26 06:28:28;;;;;;;;;;;;;;;22.97;63.85;100845.09;1771053;79;21139;-56
2021/05/26 06:30:56;;;;;;;;;;;;;;;22.94;63.88;100842.43;1762998;79;20285;-55
2021/05/26 06:33:22;;;;;;;;;;;;;;;22.92;63.91;100843.89;1772629;79;20207;-53
2021/05/26 06:35:48;;;;;;;;;;;;;;;22.90;63.93;100836.48;1770761;79;20388;-57
2021/05/26 06:38:14;;;;;;;;;;;;;;;22.88;63.96;100835.42;1772626;79;20286;-56
2021/05/26 06:40:40;;;;;;;;;;;;;;;22.87;63.99;100834.39;1774699;79;21052;-55
2021/05/26 06:43:06;;;;;;;;;;;;;;;22.86;64.02;100832.18;1771220;79;20299;-55
2021/05/26 06:45:32;;;;;;;;;;;;;;;22.85;64.06;100839.44;1769241;79;20212;-56
2021/05/26 06:47:58;;;;;;;;;;;;;;;22.87;64.05;100841.32;1770330;79;20290;-56
2021/05/26 06:50:24;;;;;;;;;;;;;;;22.89;64.04;100848.72;1769055;79;20759;-55
2021/05/26 06:52:49;;;;;;;;;;;;;;;22.90;64.10;100850.36;1773105;79;21697;-55
2021/05/26 06:55:15;;;;;;;;;;;;;;;22.92;64.12;100845.28;1773019;79;20201;-55
2021/05/26 06:57:41;;;;;;;;;;;;;;;22.95;64.18;100842.67;1772368;79;20190;-55
2021/05/26 07:00:09;;;;;;;;;;;;;;;22.97;64.20;100837.59;1773940;79;20794;-55
2021/05/26 07:02:35;;;;;;;;;;;;;;;23.00;64.23;100848.02;1768753;79;20604;-55
2021/05/26 07:05:02;;;;;;;;;;;;;;;23.04;64.26;100844.03;1773421;79;21036;-57
2021/05/26 07:07:28;;;;;;;;;;;;;;;23.08;64.28;100844.98;1769897;79;20275;-55
2021/05/26 07:09:54;;;;;;;;;;;;;;;23.10;64.25;100839.91;1772270;79;20238;-55
2021/05/26 07:12:20;;;;;;;;;;;;;;;23.12;64.25;100842.60;1770187;79;20239;-55
2021/05/26 07:14:46;;;;;;;;;;;;;;;23.16;64.26;100846.91;1755295;79;20310;-56
2021/05/26 07:17:12;;;;;;;;;;;;;;;23.18;64.28;100841.82;1754080;80;21066;-55
2021/05/26 07:19:38;;;;;;;;;;;;;;;23.18;64.21;100850.97;1756090;80;20300;-55
2021/05/26 07:22:04;;;;;;;;;;;;;;;23.19;64.17;100849.00;1752520;81;20743;-55
2021/05/26 07:24:30;;;;;;;;;;;;;;;23.18;64.15;100852.92;1732555;81;20702;-54
2021/05/26 07:26:56;;;;;;;;;;;;;;;23.17;64.14;100852.11;1726117;81;20241;-55
2021/05/26 07:29:22;;;;;;;;;;;;;;;23.18;64.15;100857.09;1728178;81;21113;-56
2021/05/26 07:31:47;;;;;;;;;;;;;;;23.21;64.14;100857.83;1739098;81;20214;-55
2021/05/26 07:34:13;;;;;;;;;;;;;;;23.22;64.07;100864.98;1745974;81;20316;-56
2021/05/26 07:36:39;;;;;;;;;;;;;;;23.23;64.03;100863.27;1743056;81;20712;-56
2021/05/26 07:39:06;;;;;;;;;;;;;;;23.26;63.99;100865.13;1758165;81;20264;-56
2021/05/26 07:41:32;;;;;;;;;;;;;;;23.25;63.94;100865.72;1744925;81;21112;-55
2021/05/26 07:43:57;;;;;;;;;;;;;;;23.24;63.90;100859.92;1759846;81;20826;-55
2021/05/26 07:46:23;;;;;;;;;;;;;;;23.26;63.92;100855.41;1760713;81;20236;-56
2021/05/26 07:48:52;;;;;;;;;;;;;;;23.26;63.89;100856.80;1736848;81;20175;-56
2021/05/26 07:51:19;;;;;;;;;;;;;;;23.26;63.88;100866.52;1720903;82;20215;-56
2021/05/26 07:53:45;;;;;;;;;;;;;;;23.24;63.84;100869.64;1746168;81;21118;-56
2021/05/26 07:56:11;;;;;;;;;;;;;;;23.22;63.80;100875.52;1759086;81;20795;-57
2021/05/26 07:58:37;;;;;;;;;;;;;;;23.21;63.80;100877.26;1743098;81;20216;-57
2021/05/26 08:01:05;;;;;;;;;;;;;;;23.20;63.81;100879.78;1757011;80;20526;-56
2021/05/26 08:03:31;;;;;;;;;;;;;;;23.18;63.81;100873.73;1762850;81;20493;-56
2021/05/26 08:05:57;;;;;;;;;;;;;;;23.18;63.85;100876.52;1747891;81;21661;-56
2021/05/26 08:08:22;;;;;;;;;;;;;;;23.17;63.83;100880.43;1723960;82;20197;-56
2021/05/26 08:10:48;;;;;;;;;;;;;;;23.15;63.83;100886.33;1755587;81;20259;-56
2021/05/26 08:13:14;;;;;;;;;;;;;;;23.14;63.85;100884.70;1748774;81;20734;-56
2021/05/26 08:15:40;;;;;;;;;;;;;;;23.14;63.84;100872.20;1715247;82;20212;-56
2021/05/26 08:18:06;;;;;;;;;;;;;;;23.14;63.85;100871.39;1721328;82;21324;-56
2021/05/26 08:20:32;;;;;;;;;;;;;;;23.15;63.84;100878.01;1724739;82;20210;-58
2021/05/26 08:22:58;;;;;;;;;;;;;;;23.18;63.82;100886.23;1724794;82;20331;-56
2021/05/26 08:25:24;;;;;;;;;;;;;;;23.20;63.84;100894.48;1729512;82;20224;-56
2021/05/26 08:27:50;;;;;;;;;;;;;;;23.22;63.89;100903.27;1718635;82;20217;-56
2021/05/26 08:30:17;;;;;;;;;;;;;;;23.28;63.91;100908.65;1693973;83;21166;-56
2021/05/26 08:32:42;;;;;;;;;;;;;;;23.32;63.94;100895.73;1725201;82;20461;-55
2021/05/26 08:35:09;;;;;;;;;;;;;;;23.36;63.97;100897.50;1722237;82;20261;-56
2021/05/26 08:37:35;;;;;;;;;;;;;;;23.42;63.99;100891.20;1735149;82;20282;-56
2021/05/26 08:40:01;;;;;;;;;;;;;;;23.47;63.96;100897.95;1733935;81;20707;-56
2021/05/26 08:42:27;;;;;;;;;;;;;;;23.51;63.96;100899.73;1742726;81;21550;-56
2021/05/26 08:44:53;;;;;;;;;;;;;;;23.57;63.91;100907.30;1735467;81;21609;-54
2021/05/26 08:47:19;;;;;;;;;;;;;;;23.62;63.88;100902.95;1735366;81;20260;-56
2021/05/26 08:49:47;;;;;;;;;;;;;;;23.65;63.84;100889.77;1732974;82;20265;-56
2021/05/26 08:52:15;;;;;;;;;;;;;;;23.65;63.77;100885.03;1741396;81;20646;-54
2021/05/26 08:54:43;;;;;;;;;;;;;;;23.67;63.73;100890.27;1743079;81;21046;-55
2021/05/26 08:57:09;;;;;;;;;;;;;;;23.68;63.64;100897.42;1739376;81;20221;-56
2021/05/26 08:59:35;;;;;;;;;;;;;;;23.66;63.58;100900.56;1733328;81;20228;-56
2021/05/26 09:02:02;;;;;;;;;;;;;;;23.67;63.53;100902.77;1737779;81;38588;-56
2021/05/26 09:04:33;;;;;;;;;;;;;;;23.66;63.49;100896.97;1736721;81;20247;-57
2021/05/26 09:07:13;;;;;;;;;;;;;;;23.66;63.45;100888.06;1735946;81;21047;-56
2021/05/26 09:09:48;;;;;;;;;;;;;;;23.65;63.41;100886.42;1744371;81;20154;-57
2021/05/26 09:12:15;;;;;;;;;;;;;;;23.65;63.36;100898.92;1730911;81;20312;-56
2021/05/26 09:14:40;;;;;;;;;;;;;;;23.63;63.35;100905.41;1751932;79;20165;-58
2021/05/26 09:17:10;;;;;;;;;;;;;;;23.63;63.31;100900.42;1741149;81;20291;-56
2021/05/26 09:19:37;;;;;;;;;;;;;;;23.62;63.30;100887.67;1738600;81;20947;-56
2021/05/26 09:22:07;;;;;;;;;;;;;;;23.60;63.30;100881.63;1739929;81;20232;-56
2021/05/26 09:24:33;;;;;;;;;;;;;;;23.58;63.28;100878.39;1734286;81;20324;-55
2021/05/26 09:27:01;;;;;;;;;;;;;;;23.59;63.30;100874.47;1734290;81;20691;-56
2021/05/26 09:29:34;;;;;;;;;;;;;;;23.59;63.30;100877.25;1744146;81;20538;-56
2021/05/26 09:32:17;;;;;;;;;;;;;;;23.58;63.31;100884.77;1740538;81;21115;-55
2021/05/26 09:34:44;;;;;;;;;;;;;;;23.58;63.28;100889.50;1740208;81;20562;-57
2021/05/26 09:37:20;;;;;;;;;;;;;;;23.58;63.27;100896.45;1745531;81;20213;-57
2021/05/26 09:39:49;;;;;;;;;;;;;;;23.56;63.29;100889.83;1739143;81;20578;-57
2021/05/26 09:42:24;;;;;;;;;;;;;;;23.55;63.29;100892.95;1735438;81;20545;-57
2021/05/26 09:45:12;;;;;;;;;;;;;;;23.53;63.30;100898.02;1740142;81;20953;-55
2021/05/26 09:47:46;;;;;;;;;;;;;;;23.53;63.31;100903.00;1736785;81;20269;-56
2021/05/26 09:50:34;;;;;;;;;;;;;;;23.51;63.32;100890.01;1740181;81;20175;-56
2021/05/26 09:53:06;;;;;;;;;;;;;;;23.51;63.33;100891.97;1737321;81;20292;-57
2021/05/26 09:55:35;;;;;;;;;;;;;;;23.51;63.32;100898.34;1745294;81;20265;-56
2021/05/26 09:58:02;;;;;;;;;;;;;;;23.55;63.35;100899.30;1736548;81;21815;-56
2021/05/26 10:00:28;;;;;;;;;;;;;;;23.57;63.40;100892.03;1743007;81;20240;-57
2021/05/26 10:02:54;;;;;;;;;;;;;;;23.63;63.44;100890.13;1735245;81;20478;-56
2021/05/26 10:05:21;;;;;;;;;;;;;;;23.70;63.47;100883.20;1737059;81;20517;-56
2021/05/26 10:07:57;;;;;;;;;;;;;;;23.76;63.52;100870.77;1737690;81;20691;-57
2021/05/26 10:10:25;;;;;;;;;;;;;;;23.83;63.50;100864.91;1737675;81;22089;-57
2021/05/26 10:12:55;;;;;;;;;;;;;;;23.91;63.47;100864.59;1734669;81;20185;-55
2021/05/26 10:15:23;;;;;;;;;;;;;;;23.97;63.44;100861.86;1743474;79;20255;-58
2021/05/26 10:17:51;;;;;;;;;;;;;;;24.05;63.43;100858.20;1750053;80;20393;-57
2021/05/26 10:20:19;;;;;;;;;;;;;;;24.12;63.37;100852.89;1772692;79;20241;-56
2021/05/26 10:22:46;;;;;;;;;;;;;;;24.19;63.34;100857.95;1770403;79;23174;-57
2021/05/26 10:25:12;;;;;;;;;;;;;;;24.24;63.27;100855.75;1770268;79;20219;-56
2021/05/26 10:27:44;;;;;;;;;;;;;;;24.29;63.23;100853.34;1772905;79;20232;-56
2021/05/26 10:30:11;;;;;;;;;;;;;;;24.33;63.13;100851.50;1772190;79;20331;-56
2021/05/26 10:33:02;;;;;;;;;;;;;;;24.33;63.05;100857.06;1772583;79;20474;-57
2021/05/26 10:35:31;;;;;;;;;;;;;;;24.35;63.00;100856.16;1774597;79;21024;-57
2021/05/26 10:38:06;;;;;;;;;;;;;;;24.37;62.92;100856.62;1767109;79;20486;-57
2021/05/26 10:40:46;;;;;;;;;;;;;;;24.40;62.91;100855.34;1770584;79;20252;-57
2021/05/26 10:43:17;;;;;;;;;;;;;;;24.41;62.85;100850.60;1775636;79;20266;-57
2021/05/26 10:45:44;;;;;;;;;;;;;;;24.40;62.80;100844.22;1769970;79;20217;-57
2021/05/26 10:48:09;;;;;;;;;;;;;;;24.40;62.78;100848.39;1772070;79;21096;-57
2021/05/26 10:50:54;;;;;;;;;;;;;;;24.38;62.76;100838.20;1771105;79;20233;-58
2021/05/26 10:53:21;;;;;;;;;;;;;;;24.39;62.79;100845.41;1772662;79;20474;-55
2021/05/26 10:55:48;;;;;;;;;;;;;;;24.41;62.79;100845.05;1776922;79;20509;-56
2021/05/26 10:58:31;;;;;;;;;;;;;;;24.44;62.82;100840.99;1773363;79;20339;-55
2021/05/26 11:01:05;;;;;;;;;;;;;;;24.46;62.80;100830.35;1777061;79;21130;-56
2021/05/26 11:03:44;;;;;;;;;;;;;;;24.49;62.78;100830.23;1747589;80;20272;-56
2021/05/26 11:06:20;;;;;;;;;;;;;;;24.52;62.76;100830.95;1748777;81;20225;-56
2021/05/26 11:08:49;;;;;;;;;;;;;;;24.56;62.73;100837.45;1724519;82;20210;-56
2021/05/26 11:11:29;;;;;;;;;;;;;;;24.60;62.72;100833.41;1771641;79;20516;-55
2021/05/26 11:14:18;;;;;;;;;;;;;;;24.64;62.68;100841.30;1723968;82;20984;-56
2021/05/26 11:16:50;;;;;;;;;;;;;;;24.68;62.66;100829.71;1750115;81;20504;-55
2021/05/26 11:19:27;;;;;;;;;;;;;;;24.74;62.61;100833.91;1738058;82;20239;-55
2021/05/26 11:21:55;;;;;;;;;;;;;;;24.77;62.58;100832.64;1757525;80;20213;-56
2021/05/26 11:24:21;;;;;;;;;;;;;;;24.80;62.54;100833.33;1765168;80;20282;-54
2021/05/26 11:26:47;;;;;;;;;;;;;;;24.84;62.49;100819.53;1757796;80;21096;-55
2021/05/26 11:29:13;;;;;;;;;;;;;;;24.88;62.47;100817.70;1764788;80;20256;-56
2021/05/26 11:31:39;;;;;;;;;;;;;;;24.92;62.44;100820.03;1744560;80;20686;-55
2021/05/26 11:34:08;;;;;;;;;;;;;;;24.99;62.37;100808.55;1764536;80;20996;-55
2021/05/26 11:36:46;;;;;;;;;;;;;;;25.06;62.33;100818.30;1764526;80;20497;-55
2021/05/26 11:39:18;;;;;;;;;;;;;;;25.11;62.31;100805.55;1763239;80;21929;-55
2021/05/26 11:41:44;;;;;;;;;;;;;;;25.17;62.31;100812.49;1761413;80;20225;-55
2021/05/26 11:44:10;;;;;;;;;;;;;;;25.23;62.31;100809.72;1766481;80;20426;-54
2021/05/26 11:46:36;;;;;;;;;;;;;;;25.29;62.27;100806.34;1768443;80;20540;-55
2021/05/26 11:49:12;;;;;;;;;;;;;;;25.36;62.28;100809.95;1762989;80;20276;-56
2021/05/26 11:51:39;;;;;;;;;;;;;;;25.43;62.25;100815.73;1767478;80;20413;-56
2021/05/26 11:54:09;;;;;;;;;;;;;;;25.48;62.18;100813.52;1761581;80;20216;-56
2021/05/26 11:56:35;;;;;;;;;;;;;;;25.56;62.14;100810.98;1769974;80;20234;-56
2021/05/26 11:59:00;;;;;;;;;;;;;;;25.61;62.09;100805.17;1765964;80;20199;-56
2021/05/26 12:01:30;;;;;;;;;;;;;;;25.65;62.00;100813.88;1762378;80;20305;-55
2021/05/26 12:03:56;;;;;;;;;;;;;;;25.69;61.92;100805.03;1766878;80;21946;-56
2021/05/26 12:06:23;;;;;;;;;;;;;;;25.72;61.87;100798.75;1761538;80;20230;-56
2021/05/26 12:08:49;;;;;;;;;;;;;;;25.74;61.78;100796.44;1769401;80;20254;-56
2021/05/26 12:11:21;;;;;;;;;;;;;;;25.76;61.71;100794.67;1765945;80;20466;-56
2021/05/26 12:13:48;;;;;;;;;;;;;;;25.79;61.64;100792.59;1765124;80;20238;-56
2021/05/26 12:16:15;;;;;;;;;;;;;;;25.80;61.57;100785.86;1773363;79;21904;-57
2021/05/26 12:18:52;;;;;;;;;;;;;;;25.83;61.52;100789.33;1774787;79;20172;-55
2021/05/26 12:21:20;;;;;;;;;;;;;;;25.84;61.45;100781.98;1776249;79;20496;-56
2021/05/26 12:23:47;;;;;;;;;;;;;;;25.86;61.43;100781.06;1775089;79;20231;-56
2021/05/26 12:26:30;;;;;;;;;;;;;;;25.90;61.36;100789.52;1773518;79;20482;-56
2021/05/26 12:28:57;;;;;;;;;;;;;;;25.91;61.34;100784.19;1775297;79;21011;-56
2021/05/26 12:31:23;;;;;;;;;;;;;;;25.93;61.30;100775.69;1773477;79;20291;-56
2021/05/26 12:33:51;;;;;;;;;;;;;;;25.97;61.23;100776.39;1772998;79;20476;-56
2021/05/26 12:36:17;;;;;;;;;;;;;;;26.00;61.21;100766.73;1770515;79;20590;-56